Spirit Of New York — WCW9332 — position and weather

sailwx.info

Track history (hours):
 
Tides and Currents Weather Stations Pressure Air Temp Water Temp Dewpoint Dewpoint Depression Visibility Wind Speed Wind Dir Waves Ship Positions

Spirit Of New York

Owner: SPIRIT CRUISES LLC, NEW YORK, NY. More information available from US FCC via Universal Licensing System and Coast Guard Vessel Documentation Center.

Last reported at 2017-Jul-21 19:00 UTC. Time now 2017-Jul-21 19:01 UTC.
Position N 40°45' W 074°01'.

Length 62 m.

Type: Passenger vessel. MMSI: 338897000.

Date/timePositionNaut miles runAvg speedWind from/ knotsBaromVisibWave heightAir tempDewpointWater temp
2017-Jul-21 19:00N 40°45' W 074°01'1 1.4
2017-Jul-21 18:30N 40°46' W 074°01'0 0.0
2017-Jul-21 18:00N 40°46' W 074°01'2 4.3
2017-Jul-21 17:30N 40°43' W 074°01'2 4.8
2017-Jul-21 17:00N 40°41' W 074°02'1 2.5
2017-Jul-21 16:30N 40°42' W 074°01'4 7.4
2017-Jul-21 16:00N 40°46' W 074°01'0 0.0
2017-Jul-21 15:30N 40°46' W 074°01'0 0.0
2017-Jul-21 15:00N 40°46' W 074°01'0 0.0
2017-Jul-21 14:30N 40°46' W 074°01'1 1.6
2017-Jul-21 14:00N 40°45' W 074°01'0 0.0
2017-Jul-21 01:23N 40°45' W 074°01'1 3.6
2017-Jul-21 01:00N 40°44' W 074°01'3 5.1
2017-Jul-21 00:30N 40°41' W 074°02'1 2.8
2017-Jul-21 00:00N 40°42' W 074°01'4 7.0
2017-Jul-20 23:30N 40°45' W 074°01'0 1.0
2017-Jul-20 23:00N 40°45' W 074°01'0 0.0
2017-Jul-20 22:30N 40°45' W 074°01'0 0.0
2017-Jul-20 22:00N 40°45' W 074°01'0 0.0
2017-Jul-20 17:56N 40°45' W 074°01'2 3.9
2017-Jul-20 17:30N 40°43' W 074°01'2 4.9
2017-Jul-20 17:00N 40°41' W 074°03'2 3.6
2017-Jul-20 16:30N 40°42' W 074°00'3 6.0
2017-Jul-20 16:00N 40°45' W 074°01'0 0.0
2017-Jul-20 15:30N 40°45' W 074°01'0 0.0
2017-Jul-20 15:00N 40°45' W 074°01'0 0.0
2017-Jul-20 01:29N 40°45' W 074°01'1 2.2
2017-Jul-20 01:00N 40°44' W 074°01'3 5.4
2017-Jul-20 00:30N 40°41' W 074°02'2 3.7
2017-Jul-20 00:00N 40°42' W 074°00'3 5.3
2017-Jul-19 23:30N 40°45' W 074°01'0 0.8
2017-Jul-19 23:00N 40°45' W 074°01'0 0.0
2017-Jul-19 22:30N 40°45' W 074°01'0 0.0
2017-Jul-19 22:01N 40°45' W 074°01'0 0.0
2017-Jul-19 21:30N 40°45' W 074°01'0 0.0
2017-Jul-19 21:00N 40°45' W 074°01'0 0.0
2017-Jul-19 20:30N 40°45' W 074°01'0 0.0
2017-Jul-19 20:00N 40°45' W 074°01'0 0.0
2017-Jul-19 19:30N 40°45' W 074°01'0 0.0
2017-Jul-19 19:00N 40°45' W 074°01'1 1.6
2017-Jul-19 18:30N 40°46' W 074°01'0 0.0
2017-Jul-19 18:01N 40°46' W 074°01'2 3.5
2017-Jul-19 17:30N 40°44' W 074°01'3 5.4
2017-Jul-19 17:00N 40°41' W 074°03'2 3.8
2017-Jul-19 16:31N 40°43' W 074°01'3 5.3
2017-Jul-19 16:00N 40°46' W 074°01'0 0.0
2017-Jul-19 15:30N 40°46' W 074°01'0 0.0
2017-Jul-19 15:00N 40°46' W 074°01'1 1.5
2017-Jul-19 14:30N 40°45' W 074°01'0 0.0
2017-Jul-19 02:16N 40°45' W 074°01'0 0.0
2017-Jul-19 02:00N 40°45' W 074°01'0 0.0
2017-Jul-19 01:30N 40°45' W 074°01'1 2.4
2017-Jul-19 01:01N 40°44' W 074°01'3 5.8
2017-Jul-19 00:31N 40°41' W 074°03'2 3.8
2017-Jul-19 00:00N 40°42' W 074°00'3 6.7
2017-Jul-18 23:31N 40°45' W 074°01'0 0.8
2017-Jul-18 23:00N 40°45' W 074°01'0 0.0
2017-Jul-18 22:30N 40°45' W 074°01'0 0.0
2017-Jul-18 22:00N 40°45' W 074°01'0 0.0
2017-Jul-17 17:53N 40°45' W 074°01'1 1.5
2017-Jul-17 17:30N 40°44' W 074°01'3 6.9
2017-Jul-17 17:01N 40°41' W 074°02'2 3.3
2017-Jul-17 16:30N 40°43' W 074°01'2 4.7
2017-Jul-17 16:00N 40°45' W 074°01'0 0.0
2017-Jul-17 15:30N 40°45' W 074°01'0 0.0
2017-Jul-17 15:00N 40°45' W 074°01'0 0.0
2017-Jul-17 01:28N 40°45' W 074°01'1 3.0
2017-Jul-17 01:01N 40°44' W 074°01'3 5.3
2017-Jul-17 00:30N 40°41' W 074°03'2 4.3
2017-Jul-17 00:00N 40°42' W 074°00'3 6.0
2017-Jul-16 23:31N 40°45' W 074°01'0 0.5
2017-Jul-16 23:00N 40°45' W 074°01'0 0.0
2017-Jul-16 22:31N 40°45' W 074°01'0 0.0
2017-Jul-16 22:00N 40°45' W 074°01'0 0.0
2017-Jul-16 17:57N 40°45' W 074°01'1 1.8
2017-Jul-16 17:30N 40°44' W 074°01'3 6.2
2017-Jul-16 17:00N 40°41' W 074°02'1 2.4
2017-Jul-16 16:30N 40°42' W 074°01'3 5.6
2017-Jul-16 16:00N 40°45' W 074°01'0 0.0
2017-Jul-16 15:30N 40°45' W 074°01'0 0.0
2017-Jul-16 15:00N 40°45' W 074°01'0 0.0
2017-Jul-16 07:00N 40°45' W 074°01'1 2.5
2017-Jul-16 06:31N 40°44' W 074°01'3 5.5
2017-Jul-16 06:01N 40°41' W 074°02'2 4.9
2017-Jul-16 05:31N 40°42' W 073°60'2 3.7
2017-Jul-16 05:01N 40°44' W 074°01'1 2.1
2017-Jul-16 04:30N 40°45' W 074°01'0 0.0
2017-Jul-16 04:00N 40°45' W 074°01'0 0.0
2017-Jul-16 03:30N 40°45' W 074°01'0 0.0
2017-Jul-16 03:00N 40°45' W 074°01'0 0.0
2017-Jul-16 02:30N 40°45' W 074°01'0 0.0
2017-Jul-16 02:00N 40°45' W 074°01'1 2.7
2017-Jul-16 01:31N 40°44' W 074°01'2 5.0
2017-Jul-16 01:01N 40°41' W 074°02'2 4.2
2017-Jul-16 00:30N 40°42' W 073°60'1 1.6
2017-Jul-16 00:01N 40°42' W 074°01'4 8.3
2017-Jul-15 23:31N 40°46' W 074°00'1 2.1
2017-Jul-15 23:00N 40°45' W 074°01'0 0.0
2017-Jul-15 19:10N 40°45' W 074°01'0 0.1
2017-Jul-15 19:00N 40°45' W 074°01'1 1.6
2017-Jul-15 18:30N 40°46' W 074°01'0 0.0
2017-Jul-15 18:00N 40°46' W 074°01'1 1.7
2017-Jul-15 17:30N 40°45' W 074°01'3 6.8
2017-Jul-15 17:01N 40°41' W 074°02'2 4.6
2017-Jul-15 16:30N 40°44' W 074°01'2 3.9
2017-Jul-15 16:00N 40°46' W 074°01'0 0.0
2017-Jul-15 15:30N 40°46' W 074°01'0 0.0
2017-Jul-15 15:00N 40°46' W 074°01'1 0.8
2017-Jul-15 14:00N 40°45' W 074°01'0 0.0
2017-Jul-15 01:32N 40°45' W 074°01'0 0.0
2017-Jul-15 01:30N 40°45' W 074°01'2 3.8
2017-Jul-15 01:00N 40°43' W 074°01'2 3.8
2017-Jul-15 00:30N 40°41' W 074°02'2 3.2
2017-Jul-15 00:00N 40°42' W 074°00'4 8.0
2017-Jul-14 23:30N 40°46' W 074°00'1 2.0
2017-Jul-14 23:00N 40°45' W 074°01'0 0.0
2017-Jul-14 22:30N 40°45' W 074°01'0 0.0
2017-Jul-14 22:00N 40°45' W 074°01'0 0.0
2017-Jul-14 17:55N 40°45' W 074°01'1 2.1
2017-Jul-14 17:30N 40°44' W 074°01'3 6.2
2017-Jul-14 17:00N 40°41' W 074°03'2 3.1
2017-Jul-14 16:30N 40°43' W 074°02'2 2.9
2017-Jul-14 15:39N 40°45' W 074°01'0 0.0
2017-Jul-14 15:30N 40°45' W 074°01'0 0.0
2017-Jul-14 15:00N 40°45' W 074°01'0 0.0
2017-Jul-14 02:57N 40°45' W 074°01'1 1.7
2017-Jul-14 02:30N 40°46' W 074°01'1 1.6
2017-Jul-14 02:00N 40°45' W 074°01'0 0.0
2017-Jul-14 01:30N 40°45' W 074°01'1 2.1
2017-Jul-14 01:00N 40°44' W 074°01'2 4.9
2017-Jul-14 00:30N 40°42' W 074°02'2 3.9
2017-Jul-14 00:00N 40°43' W 074°02'2 4.3
2017-Jul-13 23:31N 40°46' W 074°01'1 1.5
2017-Jul-13 23:00N 40°45' W 074°01'0 0.0
2017-Jul-13 17:57N 40°45' W 074°01'1 1.3
2017-Jul-13 17:30N 40°44' W 074°01'3 6.9
2017-Jul-13 17:00N 40°41' W 074°03'2 3.4
2017-Jul-13 16:30N 40°43' W 074°01'2 4.9
2017-Jul-13 16:00N 40°45' W 074°01'0 0.0
2017-Jul-13 15:30N 40°45' W 074°01'0 0.0
2017-Jul-13 15:00N 40°45' W 074°01'0 0.0
2017-Jul-13 02:44N 40°45' W 074°01'1 3.3
2017-Jul-13 02:30N 40°46' W 074°01'0 0.0
2017-Jul-13 02:00N 40°46' W 074°01'1 1.6
2017-Jul-13 01:30N 40°45' W 074°01'1 1.9
2017-Jul-13 01:00N 40°44' W 074°01'3 5.4
2017-Jul-13 00:30N 40°41' W 074°02'2 3.8
2017-Jul-13 00:00N 40°42' W 073°60'2 4.6
2017-Jul-12 23:30N 40°44' W 074°01'1 1.1
2017-Jul-12 23:00N 40°45' W 074°01'0 0.0
2017-Jul-12 22:30N 40°45' W 074°01'1 1.6
2017-Jul-12 22:00N 40°46' W 074°01'0 0.0
2017-Jul-12 21:30N 40°46' W 074°01'1 1.6
2017-Jul-12 21:00N 40°45' W 074°01'0 0.0
2017-Jul-12 20:30N 40°45' W 074°01'0 0.0
2017-Jul-12 20:00N 40°45' W 074°01'0 0.0
2017-Jul-12 19:30N 40°45' W 074°01'0 0.0
2017-Jul-12 19:00N 40°45' W 074°01'1 1.6
2017-Jul-12 18:30N 40°46' W 074°01'0 0.0
2017-Jul-12 18:00N 40°46' W 074°01'1 2.5
2017-Jul-12 17:30N 40°44' W 074°01'3 6.6
2017-Jul-12 17:01N 40°41' W 074°03'3 6.0
2017-Jul-12 16:31N 40°44' W 074°01'2 3.1
2017-Jul-12 16:00N 40°46' W 074°01'0 0.0
2017-Jul-12 15:30N 40°46' W 074°01'0 0.0
2017-Jul-12 15:00N 40°46' W 074°01'1 0.1
2017-Jul-12 01:26N 40°45' W 074°01'1 2.4
2017-Jul-12 01:01N 40°44' W 074°01'3 6.0
2017-Jul-12 00:31N 40°41' W 074°03'1 2.9
2017-Jul-12 00:01N 40°42' W 074°01'3 5.2
2017-Jul-11 23:30N 40°45' W 074°01'0 0.0
2017-Jul-11 23:00N 40°45' W 074°01'0 0.0
2017-Jul-11 22:30N 40°45' W 074°01'  
Track history (hours):
 
Tides and Currents Weather Stations Pressure Air Temp Water Temp Dewpoint Dewpoint Depression Visibility Wind Speed Wind Dir Waves Ship Positions

Spirit Of New York

Owner: SPIRIT CRUISES LLC, NEW YORK, NY. More information available from US FCC via Universal Licensing System and Coast Guard Vessel Documentation Center.

Last reported at 2017-Jul-21 19:00 UTC. Time now 2017-Jul-21 19:01 UTC.
Position N 40°45' W 074°01'.

Length 62 m.

Type: Passenger vessel. MMSI: 338897000.

Date/timePositionNaut miles runAvg speedWind from/ knotsBaromVisibWave heightAir tempDewpointWater temp
2017-Jul-21 19:00N 40°45' W 074°01'1 1.4
2017-Jul-21 18:30N 40°46' W 074°01'0 0.0
2017-Jul-21 18:00N 40°46' W 074°01'2 4.3
2017-Jul-21 17:30N 40°43' W 074°01'2 4.8
2017-Jul-21 17:00N 40°41' W 074°02'1 2.5
2017-Jul-21 16:30N 40°42' W 074°01'4 7.4
2017-Jul-21 16:00N 40°46' W 074°01'0 0.0
2017-Jul-21 15:30N 40°46' W 074°01'0 0.0
2017-Jul-21 15:00N 40°46' W 074°01'0 0.0
2017-Jul-21 14:30N 40°46' W 074°01'1 1.6
2017-Jul-21 14:00N 40°45' W 074°01'0 0.0
2017-Jul-21 01:23N 40°45' W 074°01'1 3.6
2017-Jul-21 01:00N 40°44' W 074°01'3 5.1
2017-Jul-21 00:30N 40°41' W 074°02'1 2.8
2017-Jul-21 00:00N 40°42' W 074°01'4 7.0
2017-Jul-20 23:30N 40°45' W 074°01'0 1.0
2017-Jul-20 23:00N 40°45' W 074°01'0 0.0
2017-Jul-20 22:30N 40°45' W 074°01'0 0.0
2017-Jul-20 22:00N 40°45' W 074°01'0 0.0
2017-Jul-20 17:56N 40°45' W 074°01'2 3.9
2017-Jul-20 17:30N 40°43' W 074°01'2 4.9
2017-Jul-20 17:00N 40°41' W 074°03'2 3.6
2017-Jul-20 16:30N 40°42' W 074°00'3 6.0
2017-Jul-20 16:00N 40°45' W 074°01'0 0.0
2017-Jul-20 15:30N 40°45' W 074°01'0 0.0
2017-Jul-20 15:00N 40°45' W 074°01'0 0.0
2017-Jul-20 01:29N 40°45' W 074°01'1 2.2
2017-Jul-20 01:00N 40°44' W 074°01'3 5.4
2017-Jul-20 00:30N 40°41' W 074°02'2 3.7
2017-Jul-20 00:00N 40°42' W 074°00'3 5.3
2017-Jul-19 23:30N 40°45' W 074°01'0 0.8
2017-Jul-19 23:00N 40°45' W 074°01'0 0.0
2017-Jul-19 22:30N 40°45' W 074°01'0 0.0
2017-Jul-19 22:01N 40°45' W 074°01'0 0.0
2017-Jul-19 21:30N 40°45' W 074°01'0 0.0
2017-Jul-19 21:00N 40°45' W 074°01'0 0.0
2017-Jul-19 20:30N 40°45' W 074°01'0 0.0
2017-Jul-19 20:00N 40°45' W 074°01'0 0.0
2017-Jul-19 19:30N 40°45' W 074°01'0 0.0
2017-Jul-19 19:00N 40°45' W 074°01'1 1.6
2017-Jul-19 18:30N 40°46' W 074°01'0 0.0
2017-Jul-19 18:01N 40°46' W 074°01'2 3.5
2017-Jul-19 17:30N 40°44' W 074°01'3 5.4
2017-Jul-19 17:00N 40°41' W 074°03'2 3.8
2017-Jul-19 16:31N 40°43' W 074°01'3 5.3
2017-Jul-19 16:00N 40°46' W 074°01'0 0.0
2017-Jul-19 15:30N 40°46' W 074°01'0 0.0
2017-Jul-19 15:00N 40°46' W 074°01'1 1.5
2017-Jul-19 14:30N 40°45' W 074°01'0 0.0
2017-Jul-19 02:16N 40°45' W 074°01'0 0.0
2017-Jul-19 02:00N 40°45' W 074°01'0 0.0
2017-Jul-19 01:30N 40°45' W 074°01'1 2.4
2017-Jul-19 01:01N 40°44' W 074°01'3 5.8
2017-Jul-19 00:31N 40°41' W 074°03'2 3.8
2017-Jul-19 00:00N 40°42' W 074°00'3 6.7
2017-Jul-18 23:31N 40°45' W 074°01'0 0.8
2017-Jul-18 23:00N 40°45' W 074°01'0 0.0
2017-Jul-18 22:30N 40°45' W 074°01'0 0.0
2017-Jul-18 22:00N 40°45' W 074°01'0 0.0
2017-Jul-17 17:53N 40°45' W 074°01'1 1.5
2017-Jul-17 17:30N 40°44' W 074°01'3 6.9
2017-Jul-17 17:01N 40°41' W 074°02'2 3.3
2017-Jul-17 16:30N 40°43' W 074°01'2 4.7
2017-Jul-17 16:00N 40°45' W 074°01'0 0.0
2017-Jul-17 15:30N 40°45' W 074°01'0 0.0
2017-Jul-17 15:00N 40°45' W 074°01'0 0.0
2017-Jul-17 01:28N 40°45' W 074°01'1 3.0
2017-Jul-17 01:01N 40°44' W 074°01'3 5.3
2017-Jul-17 00:30N 40°41' W 074°03'2 4.3
2017-Jul-17 00:00N 40°42' W 074°00'3 6.0
2017-Jul-16 23:31N 40°45' W 074°01'0 0.5
2017-Jul-16 23:00N 40°45' W 074°01'0 0.0
2017-Jul-16 22:31N 40°45' W 074°01'0 0.0
2017-Jul-16 22:00N 40°45' W 074°01'0 0.0
2017-Jul-16 17:57N 40°45' W 074°01'1 1.8
2017-Jul-16 17:30N 40°44' W 074°01'3 6.2
2017-Jul-16 17:00N 40°41' W 074°02'1 2.4
2017-Jul-16 16:30N 40°42' W 074°01'3 5.6
2017-Jul-16 16:00N 40°45' W 074°01'0 0.0
2017-Jul-16 15:30N 40°45' W 074°01'0 0.0
2017-Jul-16 15:00N 40°45' W 074°01'0 0.0
2017-Jul-16 07:00N 40°45' W 074°01'1 2.5
2017-Jul-16 06:31N 40°44' W 074°01'3 5.5
2017-Jul-16 06:01N 40°41' W 074°02'2 4.9
2017-Jul-16 05:31N 40°42' W 073°60'2 3.7
2017-Jul-16 05:01N 40°44' W 074°01'1 2.1
2017-Jul-16 04:30N 40°45' W 074°01'0 0.0
2017-Jul-16 04:00N 40°45' W 074°01'0 0.0
2017-Jul-16 03:30N 40°45' W 074°01'0 0.0
2017-Jul-16 03:00N 40°45' W 074°01'0 0.0
2017-Jul-16 02:30N 40°45' W 074°01'0 0.0
2017-Jul-16 02:00N 40°45' W 074°01'1 2.7
2017-Jul-16 01:31N 40°44' W 074°01'2 5.0
2017-Jul-16 01:01N 40°41' W 074°02'2 4.2
2017-Jul-16 00:30N 40°42' W 073°60'1 1.6
2017-Jul-16 00:01N 40°42' W 074°01'4 8.3
2017-Jul-15 23:31N 40°46' W 074°00'1 2.1
2017-Jul-15 23:00N 40°45' W 074°01'0 0.0
2017-Jul-15 19:10N 40°45' W 074°01'0 0.1
2017-Jul-15 19:00N 40°45' W 074°01'1 1.6
2017-Jul-15 18:30N 40°46' W 074°01'0 0.0
2017-Jul-15 18:00N 40°46' W 074°01'1 1.7
2017-Jul-15 17:30N 40°45' W 074°01'3 6.8
2017-Jul-15 17:01N 40°41' W 074°02'2 4.6
2017-Jul-15 16:30N 40°44' W 074°01'2 3.9
2017-Jul-15 16:00N 40°46' W 074°01'0 0.0
2017-Jul-15 15:30N 40°46' W 074°01'0 0.0
2017-Jul-15 15:00N 40°46' W 074°01'1 0.8
2017-Jul-15 14:00N 40°45' W 074°01'0 0.0
2017-Jul-15 01:32N 40°45' W 074°01'0 0.0
2017-Jul-15 01:30N 40°45' W 074°01'2 3.8
2017-Jul-15 01:00N 40°43' W 074°01'2 3.8
2017-Jul-15 00:30N 40°41' W 074°02'2 3.2
2017-Jul-15 00:00N 40°42' W 074°00'4 8.0
2017-Jul-14 23:30N 40°46' W 074°00'1 2.0
2017-Jul-14 23:00N 40°45' W 074°01'0 0.0
2017-Jul-14 22:30N 40°45' W 074°01'0 0.0
2017-Jul-14 22:00N 40°45' W 074°01'0 0.0
2017-Jul-14 17:55N 40°45' W 074°01'1 2.1
2017-Jul-14 17:30N 40°44' W 074°01'3 6.2
2017-Jul-14 17:00N 40°41' W 074°03'2 3.1
2017-Jul-14 16:30N 40°43' W 074°02'2 2.9
2017-Jul-14 15:39N 40°45' W 074°01'0 0.0
2017-Jul-14 15:30N 40°45' W 074°01'0 0.0
2017-Jul-14 15:00N 40°45' W 074°01'0 0.0
2017-Jul-14 02:57N 40°45' W 074°01'1 1.7
2017-Jul-14 02:30N 40°46' W 074°01'1 1.6
2017-Jul-14 02:00N 40°45' W 074°01'0 0.0
2017-Jul-14 01:30N 40°45' W 074°01'1 2.1
2017-Jul-14 01:00N 40°44' W 074°01'2 4.9
2017-Jul-14 00:30N 40°42' W 074°02'2 3.9
2017-Jul-14 00:00N 40°43' W 074°02'2 4.3
2017-Jul-13 23:31N 40°46' W 074°01'1 1.5
2017-Jul-13 23:00N 40°45' W 074°01'0 0.0
2017-Jul-13 17:57N 40°45' W 074°01'1 1.3
2017-Jul-13 17:30N 40°44' W 074°01'3 6.9
2017-Jul-13 17:00N 40°41' W 074°03'2 3.4
2017-Jul-13 16:30N 40°43' W 074°01'2 4.9
2017-Jul-13 16:00N 40°45' W 074°01'0 0.0
2017-Jul-13 15:30N 40°45' W 074°01'0 0.0
2017-Jul-13 15:00N 40°45' W 074°01'0 0.0
2017-Jul-13 02:44N 40°45' W 074°01'1 3.3
2017-Jul-13 02:30N 40°46' W 074°01'0 0.0
2017-Jul-13 02:00N 40°46' W 074°01'1 1.6
2017-Jul-13 01:30N 40°45' W 074°01'1 1.9
2017-Jul-13 01:00N 40°44' W 074°01'3 5.4
2017-Jul-13 00:30N 40°41' W 074°02'2 3.8
2017-Jul-13 00:00N 40°42' W 073°60'2 4.6
2017-Jul-12 23:30N 40°44' W 074°01'1 1.1
2017-Jul-12 23:00N 40°45' W 074°01'0 0.0
2017-Jul-12 22:30N 40°45' W 074°01'1 1.6
2017-Jul-12 22:00N 40°46' W 074°01'0 0.0
2017-Jul-12 21:30N 40°46' W 074°01'1 1.6
2017-Jul-12 21:00N 40°45' W 074°01'0 0.0
2017-Jul-12 20:30N 40°45' W 074°01'0 0.0
2017-Jul-12 20:00N 40°45' W 074°01'0 0.0
2017-Jul-12 19:30N 40°45' W 074°01'0 0.0
2017-Jul-12 19:00N 40°45' W 074°01'1 1.6
2017-Jul-12 18:30N 40°46' W 074°01'0 0.0
2017-Jul-12 18:00N 40°46' W 074°01'1 2.5
2017-Jul-12 17:30N 40°44' W 074°01'3 6.6
2017-Jul-12 17:01N 40°41' W 074°03'3 6.0
2017-Jul-12 16:31N 40°44' W 074°01'2 3.1
2017-Jul-12 16:00N 40°46' W 074°01'0 0.0
2017-Jul-12 15:30N 40°46' W 074°01'0 0.0
2017-Jul-12 15:00N 40°46' W 074°01'1 0.1
2017-Jul-12 01:26N 40°45' W 074°01'1 2.4
2017-Jul-12 01:01N 40°44' W 074°01'3 6.0
2017-Jul-12 00:31N 40°41' W 074°03'1 2.9
2017-Jul-12 00:01N 40°42' W 074°01'3 5.2
2017-Jul-11 23:30N 40°45' W 074°01'0 0.0
2017-Jul-11 23:00N 40°45' W 074°01'0 0.0
2017-Jul-11 22:30N 40°45' W 074°01'  

Dump ship's entire track history